createdAt,value
2023-04-09T00:00:52.286Z,100.00
2023-04-09T00:01:55.496Z,100.00
2023-04-09T00:03:10.106Z,100.00
2023-04-09T00:04:18.431Z,100.00
2023-04-09T00:05:21.932Z,100.00
2023-04-09T00:06:31.629Z,100.00
2023-04-09T00:07:34.616Z,100.00
2023-04-09T00:08:40.934Z,100.00
2023-04-09T00:09:43.816Z,100.00
2023-04-09T00:10:49.235Z,100.00
2023-04-09T00:11:58.427Z,100.00
2023-04-09T00:13:03.893Z,100.00
2023-04-09T00:14:09.902Z,100.00
2023-04-09T00:15:24.009Z,100.00
2023-04-09T00:16:33.626Z,100.00
2023-04-09T00:17:37.107Z,100.00
2023-04-09T00:18:43.205Z,100.00
2023-04-09T00:19:46.158Z,100.00
2023-04-09T00:20:51.987Z,100.00
2023-04-09T00:21:57.874Z,100.00
2023-04-09T00:23:06.549Z,100.00
2023-04-09T00:24:09.523Z,100.00
2023-04-09T00:25:15.490Z,100.00
2023-04-09T00:26:18.115Z,100.00
2023-04-09T00:27:23.261Z,100.00
2023-04-09T00:28:26.277Z,100.00
2023-04-09T00:29:32.248Z,100.00
2023-04-09T00:30:35.350Z,100.00
2023-04-09T00:31:41.230Z,100.00
2023-04-09T00:32:44.601Z,100.00
2023-04-09T00:33:50.456Z,100.00
2023-04-09T00:34:53.702Z,100.00
2023-04-09T00:36:02.090Z,100.00
2023-04-09T00:37:07.715Z,100.00
2023-04-09T00:38:13.643Z,100.00
2023-04-09T00:39:19.773Z,100.00
2023-04-09T00:40:32.886Z,100.00
2023-04-09T00:41:36.307Z,100.00
2023-04-09T00:42:42.226Z,100.00
2023-04-09T00:43:48.075Z,100.00
2023-04-09T00:44:54.374Z,100.00
2023-04-09T00:46:04.082Z,100.00
2023-04-09T00:47:10.206Z,100.00
2023-04-09T00:48:16.769Z,100.00
2023-04-09T00:49:20.244Z,100.00
2023-04-09T00:50:26.047Z,100.00
2023-04-09T00:51:29.665Z,100.00
2023-04-09T00:52:37.781Z,100.00
2023-04-09T00:53:41.159Z,100.00
2023-04-09T00:54:47.597Z,100.00
2023-04-09T00:55:58.968Z,100.00
2023-04-09T00:57:07.046Z,100.00
2023-04-09T00:58:19.357Z,100.00
2023-04-09T00:59:22.278Z,100.00
2023-04-09T01:00:31.491Z,100.00
2023-04-09T01:01:34.251Z,100.00
2023-04-09T01:02:39.742Z,100.00
2023-04-09T01:03:43.369Z,100.00
2023-04-09T01:04:52.516Z,100.00
2023-04-09T01:06:03.193Z,100.00
2023-04-09T01:07:15.058Z,100.00
2023-04-09T01:08:32.638Z,100.00
2023-04-09T01:09:44.467Z,100.00
2023-04-09T01:10:53.356Z,100.00
2023-04-09T01:12:12.937Z,100.00
2023-04-09T01:13:20.796Z,100.00
2023-04-09T01:14:31.441Z,100.00
2023-04-09T01:15:38.491Z,100.00
2023-04-09T01:16:48.221Z,100.00
2023-04-09T01:17:57.237Z,100.00
2023-04-09T01:19:06.327Z,100.00
2023-04-09T01:20:18.778Z,100.00
2023-04-09T01:21:29.889Z,100.00
2023-04-09T01:22:45.374Z,100.00
2023-04-09T01:24:04.314Z,100.00
2023-04-09T01:25:19.363Z,100.00
2023-04-09T01:26:36.018Z,100.00
2023-04-09T01:28:01.329Z,100.00
2023-04-09T01:29:11.120Z,100.00
2023-04-09T01:30:19.578Z,100.00
2023-04-09T01:31:29.176Z,100.00
2023-04-09T01:32:36.962Z,100.00
2023-04-09T01:33:40.868Z,100.00
2023-04-09T01:34:52.416Z,100.00
2023-04-09T01:35:55.787Z,100.00
2023-04-09T01:37:04.886Z,100.00
2023-04-09T01:38:14.596Z,100.00
2023-04-09T01:39:23.677Z,100.00
2023-04-09T01:40:28.024Z,100.00
2023-04-09T01:41:36.187Z,100.00
2023-04-09T01:42:39.933Z,100.00
2023-04-09T01:43:47.270Z,100.00
2023-04-09T01:44:54.214Z,100.00
2023-04-09T01:46:00.512Z,100.00
2023-04-09T01:47:04.440Z,100.00
2023-04-09T01:48:10.557Z,100.00
2023-04-09T01:49:17.097Z,100.00
2023-04-09T01:50:23.207Z,100.00
2023-04-09T01:51:37.776Z,100.00
2023-04-09T01:52:43.567Z,100.00
2023-04-09T01:53:47.100Z,100.00
2023-04-09T01:54:55.804Z,100.00
2023-04-09T01:56:00.207Z,100.00
2023-04-09T01:57:07.112Z,100.00
2023-04-09T01:58:10.348Z,100.00
2023-04-09T01:59:19.179Z,100.00
2023-04-09T02:00:28.170Z,100.00
2023-04-09T02:01:42.473Z,100.00
2023-04-09T02:02:59.514Z,100.00
2023-04-09T02:04:08.472Z,100.00
2023-04-09T02:05:17.594Z,100.00
2023-04-09T02:06:30.370Z,100.00
2023-04-09T02:07:41.381Z,100.00
2023-04-09T02:08:53.447Z,100.00
2023-04-09T02:09:57.728Z,100.00
2023-04-09T02:11:07.877Z,100.00
2023-04-09T02:12:15.588Z,100.00
2023-04-09T02:13:24.488Z,100.00
2023-04-09T02:14:36.217Z,100.00
2023-04-09T02:15:46.811Z,100.00
2023-04-09T02:16:49.869Z,100.00
2023-04-09T02:17:56.301Z,100.00
2023-04-09T02:19:02.108Z,100.00
2023-04-09T02:20:08.746Z,100.00
2023-04-09T02:21:14.015Z,100.00
2023-04-09T02:22:23.228Z,100.00
2023-04-09T02:23:29.769Z,100.00
2023-04-09T02:24:36.709Z,100.00
2023-04-09T02:25:39.754Z,100.00
2023-04-09T02:26:48.123Z,100.00
2023-04-09T02:27:53.872Z,100.00
2023-04-09T02:28:59.941Z,100.00
2023-04-09T02:30:02.075Z,100.00
2023-04-09T02:31:09.668Z,100.00
2023-04-09T02:32:11.999Z,100.00
2023-04-09T02:33:16.879Z,100.00
2023-04-09T02:34:19.115Z,100.00
2023-04-09T02:35:23.987Z,100.00
2023-04-09T02:36:26.707Z,100.00
2023-04-09T02:37:31.579Z,100.00
2023-04-09T02:38:33.700Z,100.00
2023-04-09T02:39:38.560Z,100.00
2023-04-09T02:40:41.504Z,100.00
2023-04-09T02:41:46.520Z,100.00
2023-04-09T02:42:48.680Z,100.00
2023-04-09T02:43:53.438Z,100.00
2023-04-09T02:44:56.006Z,100.00
2023-04-09T02:46:00.779Z,100.00
2023-04-09T02:47:05.611Z,100.00
2023-04-09T02:48:10.593Z,100.00
2023-04-09T02:49:12.801Z,100.00
2023-04-09T02:50:17.646Z,100.00
2023-04-09T02:51:20.568Z,100.00
2023-04-09T02:52:26.236Z,100.00
2023-04-09T02:53:28.474Z,100.00
2023-04-09T02:54:33.284Z,100.00
2023-04-09T02:55:35.642Z,100.00
2023-04-09T02:56:40.539Z,100.00
2023-04-09T02:57:42.734Z,100.00
2023-04-09T02:58:49.792Z,100.00
2023-04-09T02:59:52.120Z,100.00
2023-04-09T03:00:56.945Z,100.00
2023-04-09T03:01:59.407Z,100.00
2023-04-09T03:03:07.362Z,100.00
2023-04-09T03:04:10.205Z,100.00
2023-04-09T03:05:15.504Z,100.00
2023-04-09T03:06:18.788Z,100.00
2023-04-09T03:07:23.912Z,100.00
2023-04-09T03:08:26.125Z,100.00
2023-04-09T03:09:31.376Z,100.00
2023-04-09T03:10:33.588Z,100.00
2023-04-09T03:11:38.471Z,100.00
2023-04-09T03:12:41.078Z,100.00
2023-04-09T03:13:45.960Z,100.00
2023-04-09T03:14:48.388Z,100.00
2023-04-09T03:15:55.043Z,100.00
2023-04-09T03:16:57.216Z,100.00
2023-04-09T03:18:02.124Z,100.00
2023-04-09T03:19:07.027Z,100.00
2023-04-09T03:20:12.496Z,100.00
2023-04-09T03:21:15.143Z,100.00
2023-04-09T03:22:20.103Z,100.00
2023-04-09T03:23:22.351Z,100.00
2023-04-09T03:24:27.522Z,100.00
2023-04-09T03:25:29.766Z,100.00
2023-04-09T03:26:36.696Z,100.00
2023-04-09T03:27:38.958Z,100.00
2023-04-09T03:28:43.750Z,100.00
2023-04-09T03:29:46.140Z,100.00
2023-04-09T03:30:50.983Z,100.00
2023-04-09T03:31:53.419Z,100.00
2023-04-09T03:32:59.665Z,100.00
2023-04-09T03:34:01.813Z,100.00
2023-04-09T03:35:09.833Z,100.00
2023-04-09T03:36:14.687Z,100.00
2023-04-09T03:37:16.848Z,100.00
2023-04-09T03:38:22.274Z,100.00
2023-04-09T03:39:24.537Z,100.00
2023-04-09T03:40:29.352Z,100.00
2023-04-09T03:41:34.186Z,100.00
2023-04-09T03:42:37.653Z,100.00
2023-04-09T03:43:42.726Z,100.00
2023-04-09T03:44:44.940Z,100.00
2023-04-09T03:45:49.878Z,100.00
2023-04-09T03:46:52.126Z,100.00
2023-04-09T03:47:58.100Z,100.00
2023-04-09T03:49:00.852Z,100.00
2023-04-09T03:50:08.704Z,100.00
2023-04-09T03:51:12.723Z,100.00
2023-04-09T03:52:17.585Z,100.00
2023-04-09T03:53:20.086Z,100.00
2023-04-09T03:54:24.966Z,100.00
2023-04-09T03:55:27.427Z,100.00
2023-04-09T03:56:32.222Z,100.00
2023-04-09T03:57:34.449Z,100.00
2023-04-09T03:58:40.152Z,100.00
2023-04-09T03:59:42.481Z,100.00
2023-04-09T04:00:47.240Z,100.00
2023-04-09T04:01:49.805Z,100.00
2023-04-09T04:02:55.002Z,100.00
2023-04-09T04:03:57.654Z,100.00
2023-04-09T04:05:02.606Z,100.00
2023-04-09T04:06:07.940Z,100.00
2023-04-09T04:07:12.982Z,100.00
2023-04-09T04:08:15.305Z,100.00
2023-04-09T04:09:20.052Z,100.00
2023-04-09T04:10:22.286Z,100.00
2023-04-09T04:11:27.306Z,100.00
2023-04-09T04:12:31.430Z,100.00
2023-04-09T04:13:36.332Z,100.00
2023-04-09T04:14:38.580Z,100.00
2023-04-09T04:15:44.255Z,100.00
2023-04-09T04:16:46.529Z,100.00
2023-04-09T04:17:51.427Z,100.00
2023-04-09T04:18:54.064Z,100.00
2023-04-09T04:19:59.325Z,100.00
2023-04-09T04:21:01.622Z,100.00
2023-04-09T04:22:09.165Z,100.00
2023-04-09T04:23:11.520Z,100.00
2023-04-09T04:24:17.153Z,100.00
2023-04-09T04:25:19.759Z,100.00
2023-04-09T04:26:25.071Z,100.00
2023-04-09T04:27:31.226Z,100.00
2023-04-09T04:28:44.032Z,100.00
2023-04-09T04:29:46.455Z,100.00
2023-04-09T04:30:52.031Z,100.00
2023-04-09T04:31:55.684Z,100.00
2023-04-09T04:33:01.341Z,100.00
2023-04-09T04:34:06.883Z,100.00
2023-04-09T04:35:16.058Z,100.00
2023-04-09T04:36:22.614Z,100.00
2023-04-09T04:37:33.987Z,100.00
2023-04-09T04:38:40.347Z,100.00
2023-04-09T04:39:49.725Z,100.00
2023-04-09T04:40:53.213Z,100.00
2023-04-09T04:42:02.069Z,100.00
2023-04-09T04:43:05.449Z,100.00
2023-04-09T04:44:11.817Z,100.00
2023-04-09T04:45:18.893Z,100.00
2023-04-09T04:46:42.005Z,100.00
2023-04-09T04:47:45.236Z,100.00
2023-04-09T04:48:55.249Z,100.00
2023-04-09T04:49:59.016Z,100.00
2023-04-09T04:51:07.627Z,100.00
2023-04-09T04:52:10.081Z,100.00
2023-04-09T04:53:18.080Z,100.00
2023-04-09T04:54:20.306Z,100.00
2023-04-09T04:55:25.502Z,100.00
2023-04-09T04:56:27.932Z,100.00
2023-04-09T04:57:32.856Z,100.00
2023-04-09T04:58:35.060Z,100.00
2023-04-09T04:59:40.753Z,100.00
2023-04-09T05:00:43.007Z,100.00
2023-04-09T05:01:48.068Z,100.00
2023-04-09T05:02:50.576Z,100.00
2023-04-09T05:03:55.968Z,100.00
2023-04-09T05:04:58.595Z,100.00
2023-04-09T05:06:03.532Z,100.00
2023-04-09T05:07:05.981Z,100.00
2023-04-09T05:08:10.934Z,100.00
2023-04-09T05:09:15.908Z,100.00
2023-04-09T05:10:21.268Z,100.00
2023-04-09T05:11:23.727Z,100.00
2023-04-09T05:12:28.701Z,100.00
2023-04-09T05:13:30.922Z,100.00
2023-04-09T05:14:35.798Z,100.00
2023-04-09T05:15:41.596Z,100.00
2023-04-09T05:16:46.603Z,100.00
2023-04-09T05:17:48.930Z,100.00
2023-04-09T05:18:54.167Z,100.00
2023-04-09T05:19:58.180Z,100.00
2023-04-09T05:21:03.012Z,100.00
2023-04-09T05:22:05.341Z,100.00
2023-04-09T05:23:12.778Z,100.00
2023-04-09T05:24:20.656Z,100.00
2023-04-09T05:25:22.904Z,100.00
2023-04-09T05:26:27.858Z,100.00
2023-04-09T05:27:30.610Z,100.00
2023-04-09T05:28:36.216Z,100.00
2023-04-09T05:29:38.376Z,100.00
2023-04-09T05:30:43.433Z,100.00
2023-04-09T05:31:48.460Z,100.00
2023-04-09T05:32:50.903Z,100.00
2023-04-09T05:33:56.085Z,100.00
2023-04-09T05:34:58.313Z,100.00
2023-04-09T05:36:03.266Z,100.00
2023-04-09T05:37:05.577Z,100.00
2023-04-09T05:38:10.898Z,100.00
2023-04-09T05:39:13.154Z,100.00
2023-04-09T05:40:20.859Z,100.00
2023-04-09T05:41:23.045Z,100.00
2023-04-09T05:42:28.041Z,100.00
2023-04-09T05:43:30.672Z,100.00
2023-04-09T05:44:35.935Z,100.00
2023-04-09T05:45:38.289Z,100.00
2023-04-09T05:46:43.233Z,100.00
2023-04-09T05:47:45.550Z,100.00
2023-04-09T05:48:52.415Z,100.00
2023-04-09T05:49:55.112Z,100.00
2023-04-09T05:51:01.038Z,100.00
2023-04-09T05:52:03.594Z,100.00
2023-04-09T05:53:08.750Z,100.00
2023-04-09T05:54:11.071Z,100.00
2023-04-09T05:55:16.172Z,100.00
2023-04-09T05:56:23.006Z,100.00
2023-04-09T05:57:30.448Z,100.00
2023-04-09T05:58:32.793Z,100.00
2023-04-09T05:59:37.680Z,100.00
2023-04-09T06:00:42.598Z,100.00
2023-04-09T06:01:47.566Z,100.00
2023-04-09T06:02:49.885Z,100.00
2023-04-09T06:03:57.743Z,100.00
2023-04-09T06:05:00.907Z,100.00
2023-04-09T06:06:07.870Z,100.00
2023-04-09T06:07:10.185Z,100.00
2023-04-09T06:08:15.156Z,100.00
2023-04-09T06:09:17.405Z,100.00
2023-04-09T06:10:22.734Z,100.00
2023-04-09T06:11:27.968Z,100.00
2023-04-09T06:12:32.960Z,100.00
2023-04-09T06:13:35.206Z,100.00
2023-04-09T06:14:40.278Z,100.00
2023-04-09T06:15:42.648Z,100.00
2023-04-09T06:16:47.629Z,100.00
2023-04-09T06:17:49.903Z,100.00
2023-04-09T06:18:57.178Z,100.00
2023-04-09T06:19:59.734Z,100.00
2023-04-09T06:21:05.566Z,100.00
2023-04-09T06:22:10.632Z,100.00
2023-04-09T06:23:15.543Z,100.00
2023-04-09T06:24:17.832Z,100.00
2023-04-09T06:25:23.059Z,100.00
2023-04-09T06:26:28.006Z,100.00
2023-04-09T06:27:32.959Z,100.00
2023-04-09T06:28:35.209Z,100.00
2023-04-09T06:29:40.144Z,100.00
2023-04-09T06:30:42.461Z,100.00
2023-04-09T06:31:47.729Z,100.00
2023-04-09T06:32:55.274Z,100.00
2023-04-09T06:33:57.766Z,100.00
2023-04-09T06:35:02.458Z,100.00
2023-04-09T06:36:08.300Z,100.00
2023-04-09T06:37:13.483Z,100.00
2023-04-09T06:38:15.937Z,100.00
2023-04-09T06:39:20.956Z,100.00
2023-04-09T06:40:23.550Z,100.00
2023-04-09T06:41:31.108Z,100.00
2023-04-09T06:42:33.486Z,100.00
2023-04-09T06:43:39.158Z,100.00
2023-04-09T06:44:44.122Z,100.00
2023-04-09T06:45:46.543Z,100.00
2023-04-09T06:46:52.082Z,100.00
2023-04-09T06:47:57.236Z,100.00
2023-04-09T06:48:59.676Z,100.00
2023-04-09T06:50:04.815Z,100.00
2023-04-09T06:51:10.744Z,100.00
2023-04-09T06:52:13.118Z,100.00
2023-04-09T06:53:18.550Z,100.00
2023-04-09T06:54:21.333Z,100.00
2023-04-09T06:55:27.400Z,100.00
2023-04-09T06:56:35.121Z,100.00
2023-04-09T06:57:38.740Z,100.00
2023-04-09T06:58:44.050Z,100.00
2023-04-09T06:59:46.581Z,100.00
2023-04-09T07:00:51.880Z,100.00
2023-04-09T07:01:54.728Z,100.00
2023-04-09T07:02:59.943Z,100.00
2023-04-09T07:04:05.258Z,100.00
2023-04-09T07:05:08.145Z,100.00
2023-04-09T07:06:13.549Z,100.00
2023-04-09T07:07:16.057Z,100.00
2023-04-09T07:08:23.293Z,100.00
2023-04-09T07:09:25.742Z,100.00
2023-04-09T07:10:30.790Z,100.00
2023-04-09T07:11:38.486Z,100.00
2023-04-09T07:12:40.857Z,100.00
2023-04-09T07:13:45.960Z,100.00
2023-04-09T07:14:48.284Z,100.00
2023-04-09T07:15:53.325Z,100.00
2023-04-09T07:16:58.281Z,100.00
2023-04-09T07:18:03.320Z,100.00
2023-04-09T07:19:07.717Z,100.00
2023-04-09T07:20:14.065Z,100.00
2023-04-09T07:21:19.492Z,100.00
2023-04-09T07:22:22.308Z,100.00
2023-04-09T07:23:27.467Z,100.00
2023-04-09T07:24:32.838Z,100.00
2023-04-09T07:25:35.068Z,100.00
2023-04-09T07:26:42.965Z,100.00
2023-04-09T07:27:48.422Z,100.00
2023-04-09T07:28:53.561Z,100.00
2023-04-09T07:29:56.584Z,100.00
2023-04-09T07:31:02.925Z,100.00
2023-04-09T07:32:05.736Z,100.00
2023-04-09T07:33:10.898Z,100.00
2023-04-09T07:34:15.954Z,100.00
2023-04-09T07:35:19.026Z,100.00
2023-04-09T07:36:24.280Z,100.00
2023-04-09T07:37:29.652Z,100.00
2023-04-09T07:38:35.155Z,100.00
2023-04-09T07:39:37.634Z,100.00
2023-04-09T07:40:42.781Z,100.00
2023-04-09T07:41:48.900Z,100.00
2023-04-09T07:42:54.319Z,100.00
2023-04-09T07:43:56.957Z,100.00
2023-04-09T07:45:03.680Z,100.00
2023-04-09T07:46:08.808Z,100.00
2023-04-09T07:47:13.858Z,100.00
2023-04-09T07:48:18.978Z,100.00
2023-04-09T07:49:24.053Z,100.00
2023-04-09T07:50:29.224Z,100.00
2023-04-09T07:51:31.767Z,100.00
2023-04-09T07:52:36.673Z,100.00
2023-04-09T07:53:38.925Z,100.00
2023-04-09T07:54:43.866Z,100.00
2023-04-09T07:55:48.867Z,100.00
2023-04-09T07:56:53.978Z,100.00
2023-04-09T07:57:59.268Z,100.00
2023-04-09T07:59:01.503Z,100.00
2023-04-09T08:00:07.177Z,100.00
2023-04-09T08:01:12.138Z,100.00
2023-04-09T08:02:15.518Z,100.00
2023-04-09T08:03:20.791Z,100.00
2023-04-09T08:04:23.476Z,100.00
2023-04-09T08:05:29.224Z,100.00
2023-04-09T08:06:34.402Z,100.00
2023-04-09T08:07:39.600Z,100.00
2023-04-09T08:08:44.479Z,100.00
2023-04-09T08:09:51.560Z,100.00
2023-04-09T08:10:57.381Z,100.00
2023-04-09T08:12:02.584Z,100.00
2023-04-09T08:13:08.733Z,100.00
2023-04-09T08:14:13.323Z,100.00
2023-04-09T08:15:18.318Z,100.00
2023-04-09T08:16:21.632Z,100.00
2023-04-09T08:17:27.942Z,100.00
2023-04-09T08:18:30.399Z,100.00
2023-04-09T08:19:36.463Z,100.00
2023-04-09T08:20:45.439Z,100.00
2023-04-09T08:21:51.666Z,100.00
2023-04-09T08:22:56.987Z,100.00
2023-04-09T08:24:01.688Z,100.00
2023-04-09T08:25:07.280Z,100.00
2023-04-09T08:26:12.663Z,100.00
2023-04-09T08:27:20.426Z,100.00
2023-04-09T08:28:25.380Z,100.00
2023-04-09T08:29:30.684Z,100.00
2023-04-09T08:30:34.566Z,100.00
2023-04-09T08:31:39.789Z,100.00
2023-04-09T08:32:44.961Z,100.00
2023-04-09T08:33:47.389Z,100.00
2023-04-09T08:34:52.297Z,100.00
2023-04-09T08:35:54.631Z,100.00
2023-04-09T08:37:01.557Z,100.00
2023-04-09T08:38:09.953Z,98.67
2023-04-09T08:43:56.219Z,98.86
2023-04-09T08:45:15.853Z,100.00
2023-04-09T08:46:28.712Z,100.00
2023-04-09T08:47:37.105Z,100.00
2023-04-09T08:48:50.136Z,97.41
2023-04-09T08:51:39.862Z,96.74
2023-04-09T08:53:12.329Z,89.77
2023-04-09T08:55:52.680Z,87.28
2023-04-09T08:56:58.490Z,82.92
2023-04-09T08:58:09.967Z,80.24
2023-04-09T08:59:44.561Z,80.43
2023-04-09T09:05:32.543Z,68.05
2023-04-09T09:07:08.913Z,66.36
2023-04-09T09:10:04.848Z,62.74
2023-04-09T09:11:30.816Z,61.45
2023-04-09T09:12:47.587Z,59.37
2023-04-09T09:14:07.731Z,57.08
2023-04-09T09:15:33.737Z,58.91
2023-04-09T09:18:59.433Z,54.55
2023-04-09T09:20:50.972Z,54.31
2023-04-09T09:30:43.516Z,47.02
2023-04-09T09:32:39.094Z,44.27
2023-04-09T09:35:50.829Z,42.37
2023-04-09T09:39:41.104Z,42.31
2023-04-09T09:41:24.258Z,42.12
2023-04-09T09:49:31.042Z,41.46
2023-04-09T09:53:28.292Z,44.32
2023-04-09T09:55:43.969Z,44.39
2023-04-09T09:57:31.737Z,44.05
2023-04-09T10:02:05.380Z,40.99
2023-04-09T10:10:58.713Z,44.58
2023-04-09T10:13:10.420Z,40.80
2023-04-09T10:21:52.728Z,42.83
2023-04-09T10:23:57.152Z,42.47
2023-04-09T10:30:13.643Z,38.87
2023-04-09T10:32:20.814Z,38.95
2023-04-09T10:34:35.251Z,39.17
2023-04-09T10:40:42.035Z,39.18
2023-04-09T10:56:11.576Z,33.68
2023-04-09T11:02:06.832Z,32.78
2023-04-09T11:21:23.150Z,39.46
2023-04-09T11:25:17.350Z,37.31
2023-04-09T11:27:06.618Z,36.17
2023-04-09T11:29:04.422Z,38.83
2023-04-09T11:30:42.529Z,38.90
2023-04-09T11:31:55.463Z,37.64
2023-04-09T11:34:38.959Z,40.35
2023-04-09T11:36:28.370Z,37.47
2023-04-09T11:38:30.730Z,39.64
2023-04-09T11:46:51.650Z,37.58
2023-04-09T11:48:35.887Z,35.91
2023-04-09T11:52:29.080Z,35.18
2023-04-09T11:58:08.679Z,33.96
2023-04-09T11:59:59.827Z,36.79
2023-04-09T12:01:25.081Z,36.68
2023-04-09T12:05:33.801Z,37.03
2023-04-09T12:18:34.170Z,33.82
2023-04-09T12:25:13.424Z,31.01
2023-04-09T12:31:12.924Z,30.81
2023-04-09T12:35:01.646Z,34.51
2023-04-09T12:36:46.882Z,34.21
2023-04-09T12:42:25.489Z,38.08
2023-04-09T12:44:32.549Z,37.12
2023-04-09T12:46:24.307Z,38.09
2023-04-09T12:48:00.036Z,38.11
2023-04-09T12:49:44.962Z,39.11
2023-04-09T12:54:20.382Z,38.44
2023-04-09T12:55:52.011Z,37.88
2023-04-09T12:57:38.000Z,38.04
2023-04-09T13:08:44.753Z,38.55
2023-04-09T13:10:52.562Z,34.96
2023-04-09T13:13:06.410Z,31.22
2023-04-09T13:14:33.982Z,29.92
2023-04-09T13:16:10.642Z,30.03
2023-04-09T13:17:57.304Z,30.92
2023-04-09T13:21:34.415Z,33.29
2023-04-09T13:23:33.062Z,34.46
2023-04-09T13:24:39.930Z,34.35
2023-04-09T13:26:03.734Z,34.69
2023-04-09T13:31:25.425Z,36.52
2023-04-09T13:38:16.139Z,31.25
2023-04-09T13:41:37.390Z,29.72
2023-04-09T13:43:08.711Z,30.55
2023-04-09T13:49:27.164Z,29.10
2023-04-09T13:53:38.841Z,31.31
2023-04-09T13:55:18.037Z,31.90
2023-04-09T14:04:03.525Z,35.96
2023-04-09T14:05:47.391Z,35.63
2023-04-09T14:11:25.990Z,37.59
2023-04-09T14:14:37.586Z,37.97
2023-04-09T14:21:35.984Z,38.74
2023-04-09T14:25:24.928Z,38.01
2023-04-09T14:30:24.269Z,37.31
2023-04-09T14:36:41.469Z,33.68
2023-04-09T14:38:35.506Z,29.74
2023-04-09T14:42:55.742Z,26.31
2023-04-09T14:52:34.962Z,23.89
2023-04-09T14:54:20.553Z,23.46
2023-04-09T14:55:50.699Z,22.88
2023-04-09T14:57:56.511Z,21.77
2023-04-09T15:01:33.998Z,19.34
2023-04-09T15:03:19.657Z,18.23
2023-04-09T15:06:51.104Z,18.86
2023-04-09T15:10:40.787Z,19.69
2023-04-09T15:12:20.564Z,20.70
2023-04-09T15:13:49.669Z,21.07
2023-04-09T15:17:38.602Z,21.99
2023-04-09T15:24:17.866Z,23.14
2023-04-09T15:25:54.091Z,21.96
2023-04-09T15:27:41.480Z,22.35
2023-04-09T15:29:18.557Z,22.66
2023-04-09T15:40:32.439Z,31.82
2023-04-09T15:44:01.100Z,33.09
2023-04-09T15:45:55.470Z,33.35
2023-04-09T15:47:33.161Z,35.73
2023-04-09T15:49:06.171Z,35.56
2023-04-09T15:50:59.569Z,35.27
2023-04-09T15:52:34.097Z,34.40
2023-04-09T15:54:22.876Z,32.23
2023-04-09T15:55:56.935Z,29.86
2023-04-09T15:57:18.925Z,28.07
2023-04-09T16:11:14.126Z,22.17
2023-04-09T16:12:43.592Z,22.13
2023-04-09T16:14:33.608Z,21.66
2023-04-09T16:16:53.394Z,20.88
2023-04-09T16:19:30.201Z,23.10
2023-04-09T16:20:32.848Z,23.74
2023-04-09T16:21:46.247Z,24.89
2023-04-09T16:22:52.772Z,26.71
2023-04-09T16:23:55.315Z,26.63
2023-04-09T16:25:00.541Z,25.96
2023-04-09T16:26:02.941Z,26.27
2023-04-09T16:27:08.165Z,26.14
2023-04-09T16:28:10.686Z,25.71
2023-04-09T16:29:18.750Z,24.76
2023-04-09T16:30:21.458Z,24.28
2023-04-09T16:31:26.525Z,24.43
2023-04-09T16:32:34.387Z,24.01
2023-04-09T16:33:36.948Z,24.20
2023-04-09T16:34:44.653Z,25.67
2023-04-09T16:35:47.259Z,26.67
2023-04-09T16:36:52.390Z,26.43
2023-04-09T16:37:54.847Z,27.42
2023-04-09T16:39:07.737Z,27.51
2023-04-09T16:40:10.778Z,26.80
2023-04-09T16:41:15.968Z,27.79
2023-04-09T16:42:25.586Z,26.70
2023-04-09T16:43:27.843Z,27.49
2023-04-09T16:44:33.292Z,27.46
2023-04-09T16:45:35.919Z,27.16
2023-04-09T16:46:46.996Z,27.23
2023-04-09T16:47:55.068Z,27.05
2023-04-09T16:49:02.717Z,28.13
2023-04-09T16:50:12.692Z,27.45
2023-04-09T16:51:19.146Z,27.48
2023-04-09T16:52:24.172Z,27.85
2023-04-09T16:53:26.997Z,28.02
2023-04-09T16:54:33.405Z,29.48
2023-04-09T16:55:36.125Z,29.95
2023-04-09T16:56:41.108Z,30.55
2023-04-09T16:57:43.414Z,32.23
2023-04-09T16:58:50.033Z,32.82
2023-04-09T16:59:54.163Z,33.37
2023-04-09T17:01:00.861Z,34.57
2023-04-09T17:02:03.267Z,35.16
2023-04-09T17:03:15.764Z,36.92
2023-04-09T17:04:20.994Z,38.39
2023-04-09T17:05:24.724Z,38.93
2023-04-09T17:06:29.948Z,38.96
2023-04-09T17:07:32.389Z,41.10
2023-04-09T17:08:46.063Z,41.03
2023-04-09T17:09:48.491Z,42.02
2023-04-09T17:11:02.471Z,43.75
2023-04-09T17:12:04.898Z,43.57
2023-04-09T17:13:10.499Z,45.15
2023-04-09T17:14:14.605Z,45.32
2023-04-09T17:15:19.537Z,44.98
2023-04-09T17:16:22.931Z,45.71
2023-04-09T17:17:28.417Z,46.23
2023-04-09T17:18:38.587Z,45.66
2023-04-09T17:19:42.884Z,45.12
2023-04-09T17:20:48.569Z,45.23
2023-04-09T17:21:53.571Z,46.34
2023-04-09T17:22:56.139Z,46.40
2023-04-09T17:24:03.460Z,47.39
2023-04-09T17:25:06.782Z,47.12
2023-04-09T17:26:17.030Z,48.02
2023-04-09T17:27:22.586Z,48.31
2023-04-09T17:28:29.234Z,48.11
2023-04-09T17:29:38.495Z,49.69
2023-04-09T17:30:43.850Z,49.08
2023-04-09T17:31:51.117Z,49.95
2023-04-09T17:33:00.075Z,50.24
2023-04-09T17:34:08.877Z,50.15
2023-04-09T17:35:12.523Z,50.16
2023-04-09T17:36:21.298Z,50.45
2023-04-09T17:37:31.260Z,51.84
2023-04-09T17:38:39.537Z,51.50
2023-04-09T17:39:51.569Z,51.82
2023-04-09T17:41:01.059Z,51.20
2023-04-09T17:42:09.888Z,52.89
2023-04-09T17:43:17.777Z,52.78
2023-04-09T17:44:23.240Z,52.55
2023-04-09T17:45:30.151Z,54.19
2023-04-09T17:46:34.658Z,53.86
2023-04-09T17:47:40.133Z,54.05
2023-04-09T17:48:42.386Z,55.04
2023-04-09T17:49:53.823Z,54.67
2023-04-09T17:50:59.173Z,56.10
2023-04-09T17:52:02.659Z,56.41
2023-04-09T17:53:08.137Z,56.86
2023-04-09T17:54:10.619Z,57.71
2023-04-09T17:55:18.207Z,57.49
2023-04-09T17:56:26.467Z,57.62
2023-04-09T17:57:32.562Z,57.84
2023-04-09T17:58:37.734Z,58.50
2023-04-09T17:59:43.639Z,59.55
2023-04-09T18:00:45.983Z,61.31
2023-04-09T18:01:51.616Z,62.18
2023-04-09T18:02:57.817Z,61.42
2023-04-09T18:04:04.585Z,61.82
2023-04-09T18:05:13.417Z,62.59
2023-04-09T18:06:18.931Z,63.59
2023-04-09T18:07:25.359Z,63.52
2023-04-09T18:08:29.232Z,64.71
2023-04-09T18:09:34.983Z,64.64
2023-04-09T18:10:42.882Z,65.66
2023-04-09T18:11:46.149Z,68.89
2023-04-09T18:12:51.586Z,69.49
2023-04-09T18:14:00.162Z,70.02
2023-04-09T18:15:02.341Z,70.75
2023-04-09T18:16:11.922Z,72.64
2023-04-09T18:17:17.582Z,73.25
2023-04-09T18:18:21.116Z,75.30
2023-04-09T18:19:26.396Z,76.52
2023-04-09T18:20:36.790Z,76.41
2023-04-09T18:21:39.107Z,76.90
2023-04-09T18:22:44.283Z,79.03
2023-04-09T18:23:46.767Z,81.37
2023-04-09T18:24:52.328Z,79.92
2023-04-09T18:25:55.100Z,80.78
2023-04-09T18:27:07.009Z,80.90
2023-04-09T18:28:09.632Z,83.14
2023-04-09T18:29:14.817Z,85.66
2023-04-09T18:30:17.172Z,85.04
2023-04-09T18:31:22.493Z,86.45
2023-04-09T18:32:26.152Z,89.59
2023-04-09T18:33:33.539Z,91.06
2023-04-09T18:34:38.473Z,90.99
2023-04-09T18:35:46.552Z,93.13
2023-04-09T18:36:51.433Z,93.13
2023-04-09T18:37:56.412Z,93.15
2023-04-09T18:38:58.907Z,93.71
2023-04-09T18:40:09.116Z,95.00
2023-04-09T18:41:16.876Z,93.53
2023-04-09T18:42:22.076Z,94.98
2023-04-09T18:43:26.543Z,95.50
2023-04-09T18:44:34.012Z,94.02
2023-04-09T18:45:39.734Z,95.70
2023-04-09T18:46:44.651Z,96.71
2023-04-09T18:47:46.903Z,97.07
2023-04-09T18:48:52.123Z,97.23
2023-04-09T18:49:54.523Z,97.34
2023-04-09T18:51:05.424Z,97.90
2023-04-09T18:52:10.962Z,98.60
2023-04-09T18:53:13.255Z,98.84
2023-04-09T18:54:18.789Z,99.90
2023-04-09T18:55:21.101Z,99.43
2023-04-09T18:56:26.408Z,100.00
2023-04-09T18:57:28.620Z,100.00
2023-04-09T18:58:36.275Z,100.00
2023-04-09T18:59:40.324Z,100.00
2023-04-09T19:00:50.881Z,100.00
2023-04-09T19:01:53.489Z,100.00
2023-04-09T19:02:58.458Z,100.00
2023-04-09T19:04:05.984Z,100.00
2023-04-09T19:05:14.950Z,100.00
2023-04-09T19:06:25.833Z,100.00
2023-04-09T19:07:28.271Z,100.00
2023-04-09T19:08:51.892Z,100.00
2023-04-09T19:09:57.853Z,100.00
2023-04-09T19:11:00.005Z,100.00